Skip Navigation Links Skip Navigation Links

Current Weather

Virginia Tech, Blacksburg, Va.

For information only: do not use for flight planning or navigation.
Latest weather
Observation time Wednesday, February 20, 2019 1:15 PM EST
Local time Wednesday, February 20, 2019 1:34 PM EST
Flight conditions Low Instrument Meteorological Conditions
Winds
Wind direction East (80°)
Wind speed 5 mph
Visibility 2 mi.
Present weather unknown precipitation
Sky condition
Ceiling 400 ft. broken clouds
Cloud layer broken clouds 400 ft.
Cloud layer broken clouds 1,000 ft.
Cloud layer overcast 2,100 ft.
Temperature 32°F
Dewpoint 32°F
Altimeter 30.28 in.Hg
Derived measurements
Relative humidity 100%
Wind chill 27°F
Density altitude -23 ft.
Remarks
Fully automated report.
Automated weather observing station with precipitation discriminator.
METAR KBCB 201815Z AUTO 08004KT 2SM UP BKN004 BKN010 OVC021 00/00 A3028 RMK AO2 T00000000

Settings

Location code

InnerDrive.Weather 4.0.6770.0 Release CLR 4.0.30319.42000
Copyright ©2018 Inner Drive Technology. All rights reserved. Portions Copyright ©1986-2018 David Braverman.

Find weather

Site navigation


Skip Navigation Links

Place info

Page info

PayPal - The safer, easier way to pay online!

Return home.

Copyright ©2019 Inner Drive Technology. Purveyors of fine, hand-crafted computer software. Page printed 2019-02-20T18:34:34 UTC.